createdAt,value
2018-06-23T00:00:19.527Z,4.97
2018-06-23T00:02:48.529Z,4.53
2018-06-23T00:05:17.474Z,4.80
2018-06-23T00:07:46.462Z,5.20
2018-06-23T00:10:15.433Z,5.80
2018-06-23T00:12:44.408Z,5.00
2018-06-23T00:15:13.312Z,5.90
2018-06-23T00:17:42.202Z,5.00
2018-06-23T00:20:11.067Z,5.20
2018-06-23T00:22:39.972Z,4.70
2018-06-23T00:25:08.880Z,5.03
2018-06-23T00:27:37.824Z,6.43
2018-06-23T00:30:06.740Z,4.57
2018-06-23T00:32:35.617Z,4.43
2018-06-23T00:35:04.476Z,4.80
2018-06-23T00:37:33.321Z,4.40
2018-06-23T00:40:02.292Z,5.33
2018-06-23T00:42:31.173Z,5.40
2018-06-23T00:45:00.094Z,4.80
2018-06-23T00:47:28.962Z,4.50
2018-06-23T00:49:58.910Z,7.12
2018-06-23T00:52:27.891Z,4.00
2018-06-23T00:54:56.809Z,4.60
2018-06-23T00:57:25.747Z,4.90
2018-06-23T00:59:54.645Z,4.83
2018-06-23T01:02:23.482Z,4.40
2018-06-23T01:04:52.375Z,4.43
2018-06-23T01:07:21.288Z,4.57
2018-06-23T01:09:50.165Z,4.30
2018-06-23T01:12:19.087Z,3.90
2018-06-23T01:14:48.012Z,4.40
2018-06-23T01:17:16.985Z,4.37
2018-06-23T01:19:45.892Z,5.63
2018-06-23T01:22:14.754Z,4.43
2018-06-23T01:24:43.733Z,3.77
2018-06-23T01:27:12.734Z,3.65
2018-06-23T01:29:41.644Z,4.35
2018-06-23T01:32:10.557Z,4.03
2018-06-23T01:34:39.498Z,4.63
2018-06-23T01:37:08.340Z,3.97
2018-06-23T01:39:37.277Z,4.70
2018-06-23T01:42:07.162Z,4.60
2018-06-23T01:44:36.068Z,4.20
2018-06-23T01:47:05.024Z,4.07
2018-06-23T01:49:33.912Z,3.97
2018-06-23T01:52:02.877Z,4.47
2018-06-23T01:54:31.759Z,6.13
2018-06-23T01:57:00.736Z,4.47
2018-06-23T01:59:29.564Z,3.83
2018-06-23T02:01:58.417Z,4.33
2018-06-23T02:04:27.409Z,5.33
2018-06-23T02:06:56.255Z,5.03
2018-06-23T02:09:25.184Z,3.90
2018-06-23T02:11:54.083Z,4.00
2018-06-23T02:14:28.070Z,4.65
2018-06-23T02:17:02.133Z,4.30
2018-06-23T02:19:36.207Z,3.90
2018-06-23T02:22:10.361Z,4.03
2018-06-23T02:24:44.473Z,3.30
2018-06-23T02:27:18.674Z,3.77
2018-06-23T02:29:52.880Z,3.37
2018-06-23T02:32:26.770Z,4.72
2018-06-23T02:35:05.080Z,3.30
2018-06-23T02:37:36.219Z,3.30
2018-06-23T02:40:05.505Z,3.50
2018-06-23T02:42:34.713Z,2.60
2018-06-23T02:45:04.117Z,2.90
2018-06-23T02:47:33.055Z,2.73
2018-06-23T02:50:02.011Z,2.60
2018-06-23T02:52:31.919Z,2.98
2018-06-23T02:55:01.256Z,2.27
2018-06-23T02:57:30.367Z,2.50
2018-06-23T02:59:59.322Z,2.53
2018-06-23T03:02:28.201Z,2.07
2018-06-23T03:04:57.322Z,1.80
2018-06-23T03:07:26.228Z,2.40
2018-06-23T03:09:55.261Z,1.80
2018-06-23T03:12:24.143Z,2.30
2018-06-23T03:14:52.957Z,3.10
2018-06-23T03:17:21.885Z,2.50
2018-06-23T03:19:51.917Z,2.17
2018-06-23T03:22:20.989Z,2.42
2018-06-23T03:24:49.841Z,2.17
2018-06-23T03:27:18.706Z,1.90
2018-06-23T03:29:47.569Z,2.37
2018-06-23T03:32:16.400Z,4.87
2018-06-23T03:34:48.426Z,2.40
2018-06-23T03:37:17.286Z,2.80
2018-06-23T03:39:46.182Z,2.83
2018-06-23T03:42:15.037Z,2.43
2018-06-23T03:44:43.899Z,3.00
2018-06-23T03:47:12.827Z,2.27
2018-06-23T03:49:41.745Z,2.70
2018-06-23T03:52:10.639Z,2.33
2018-06-23T03:54:39.590Z,3.73
2018-06-23T03:57:08.481Z,2.23
2018-06-23T03:59:37.425Z,3.00
2018-06-23T04:02:06.373Z,2.40
2018-06-23T04:04:35.245Z,2.73
2018-06-23T04:07:04.140Z,2.42
2018-06-23T04:09:33.078Z,2.08
2018-06-23T04:12:01.994Z,3.13
2018-06-23T04:14:30.914Z,2.27
2018-06-23T04:16:59.862Z,3.00
2018-06-23T04:19:28.845Z,2.17
2018-06-23T04:21:57.729Z,2.57
2018-06-23T04:24:26.620Z,2.60
2018-06-23T04:26:55.492Z,3.45
2018-06-23T04:29:24.480Z,2.83
2018-06-23T04:31:53.521Z,2.40
2018-06-23T04:34:22.491Z,2.90
2018-06-23T04:36:51.424Z,2.50
2018-06-23T04:39:20.393Z,2.90
2018-06-23T04:41:49.301Z,3.10
2018-06-23T04:44:18.176Z,2.93
2018-06-23T04:46:47.057Z,2.70
2018-06-23T04:49:16.017Z,2.90
2018-06-23T04:51:44.867Z,3.00
2018-06-23T04:54:13.865Z,3.37
2018-06-23T04:56:42.775Z,3.08
2018-06-23T04:59:11.772Z,3.08
2018-06-23T05:01:40.691Z,3.90
2018-06-23T05:04:09.673Z,3.10
2018-06-23T05:06:38.685Z,3.42
2018-06-23T05:09:08.270Z,3.20
2018-06-23T05:11:37.193Z,2.97
2018-06-23T05:14:06.049Z,3.62
2018-06-23T05:16:35.000Z,3.20
2018-06-23T05:19:03.929Z,4.20
2018-06-23T05:21:32.773Z,3.90
2018-06-23T05:24:01.648Z,4.40
2018-06-23T05:26:30.559Z,3.58
2018-06-23T05:28:59.445Z,3.90
2018-06-23T05:31:28.334Z,2.97
2018-06-23T05:33:57.299Z,3.50
2018-06-23T05:36:26.519Z,3.50
2018-06-23T05:38:55.411Z,3.50
2018-06-23T05:41:24.345Z,2.60
2018-06-23T05:43:56.147Z,3.23
2018-06-23T05:46:25.101Z,2.50
2018-06-23T05:48:53.993Z,2.43
2018-06-23T05:51:23.027Z,3.00
2018-06-23T05:53:52.006Z,2.37
2018-06-23T05:56:20.926Z,2.70
2018-06-23T05:58:49.828Z,2.20
2018-06-23T06:01:18.721Z,2.30
2018-06-23T06:03:47.798Z,2.10
2018-06-23T06:06:16.818Z,2.60
2018-06-23T06:08:45.792Z,3.17
2018-06-23T06:11:14.759Z,2.17
2018-06-23T06:13:43.654Z,2.13
2018-06-23T06:16:12.583Z,2.20
2018-06-23T06:18:41.562Z,1.70
2018-06-23T06:21:10.522Z,1.80
2018-06-23T06:23:39.423Z,1.90
2018-06-23T06:26:08.308Z,1.67
2018-06-23T06:28:37.253Z,2.37
2018-06-23T06:31:06.293Z,2.58
2018-06-23T06:33:35.188Z,2.37
2018-06-23T06:36:07.189Z,1.92
2018-06-23T06:38:36.086Z,2.40
2018-06-23T06:41:05.089Z,2.13
2018-06-23T06:43:34.102Z,2.40
2018-06-23T06:46:03.036Z,2.37
2018-06-23T06:48:32.071Z,2.70
2018-06-23T06:51:00.998Z,2.80
2018-06-23T06:53:29.926Z,2.27
2018-06-23T06:55:58.803Z,2.10
2018-06-23T06:58:27.791Z,2.87
2018-06-23T07:00:56.741Z,2.45
2018-06-23T07:03:25.687Z,2.10
2018-06-23T07:05:54.585Z,2.20
2018-06-23T07:08:23.613Z,2.25
2018-06-23T07:10:52.521Z,2.50
2018-06-23T07:13:21.449Z,2.10
2018-06-23T07:15:50.421Z,3.20
2018-06-23T07:18:19.317Z,2.63
2018-06-23T07:20:48.168Z,2.87
2018-06-23T07:23:17.004Z,2.97
2018-06-23T07:25:45.861Z,2.10
2018-06-23T07:28:18.281Z,2.50
2018-06-23T07:30:48.791Z,3.37
2018-06-23T07:33:18.066Z,3.97
2018-06-23T07:35:50.437Z,3.07
2018-06-23T07:38:19.382Z,3.52
2018-06-23T07:40:48.608Z,3.67
2018-06-23T07:43:17.615Z,3.43
2018-06-23T07:45:46.830Z,3.93
2018-06-23T07:48:15.766Z,3.40
2018-06-23T07:50:44.730Z,3.20
2018-06-23T07:53:14.099Z,3.58
2018-06-23T07:55:43.162Z,3.12
2018-06-23T07:58:12.729Z,3.30
2018-06-23T08:00:41.677Z,3.75
2018-06-23T08:03:10.622Z,2.92
2018-06-23T08:05:39.733Z,3.05
2018-06-23T08:08:09.111Z,3.30
2018-06-23T08:10:38.699Z,2.80
2018-06-23T08:13:08.149Z,3.40
2018-06-23T08:15:37.171Z,2.60
2018-06-23T08:18:06.314Z,3.20
2018-06-23T08:20:35.258Z,3.33
2018-06-23T08:23:04.252Z,3.23
2018-06-23T08:25:33.248Z,3.33
2018-06-23T08:28:02.380Z,3.08
2018-06-23T08:30:31.308Z,4.00
2018-06-23T08:33:00.332Z,4.37
2018-06-23T08:35:29.216Z,3.30
2018-06-23T08:37:58.219Z,6.40
2018-06-23T08:40:27.155Z,5.33
2018-06-23T08:42:56.087Z,3.30
2018-06-23T08:45:25.066Z,3.87
2018-06-23T08:47:54.044Z,5.20
2018-06-23T08:50:23.088Z,3.70
2018-06-23T08:52:52.053Z,3.83
2018-06-23T08:55:21.073Z,6.40
2018-06-23T08:57:49.913Z,4.83
2018-06-23T09:00:18.812Z,4.93
2018-06-23T09:02:47.776Z,5.60
2018-06-23T09:05:16.689Z,6.40
2018-06-23T09:07:45.590Z,5.60
2018-06-23T09:10:14.486Z,3.87
2018-06-23T09:12:43.790Z,4.45
2018-06-23T09:15:12.959Z,4.17
2018-06-23T09:17:41.851Z,3.90
2018-06-23T09:20:11.390Z,3.43
2018-06-23T09:22:40.984Z,3.97
2018-06-23T09:25:10.085Z,3.95
2018-06-23T09:27:38.999Z,3.92
2018-06-23T09:30:08.081Z,3.40
2018-06-23T09:32:37.060Z,4.15
2018-06-23T09:35:05.905Z,5.42
2018-06-23T09:37:34.777Z,4.37
2018-06-23T09:40:03.749Z,3.40
2018-06-23T09:42:32.665Z,4.13
2018-06-23T09:45:01.556Z,4.17
2018-06-23T09:47:30.409Z,4.27
2018-06-23T09:49:59.366Z,4.17
2018-06-23T09:52:28.413Z,4.50
2018-06-23T09:54:57.399Z,5.07
2018-06-23T09:57:26.267Z,4.20
2018-06-23T09:59:57.871Z,5.23
2018-06-23T10:02:26.782Z,5.00
2018-06-23T10:04:55.690Z,4.47
2018-06-23T10:07:24.669Z,4.20
2018-06-23T10:09:53.581Z,4.77
2018-06-23T10:12:22.536Z,4.13
2018-06-23T10:14:51.475Z,4.87
2018-06-23T10:17:20.496Z,4.53
2018-06-23T10:19:49.417Z,4.10
2018-06-23T10:22:18.367Z,4.17
2018-06-23T10:24:47.222Z,4.30
2018-06-23T10:27:16.132Z,4.03
2018-06-23T10:29:44.992Z,3.67
2018-06-23T10:32:13.842Z,3.90
2018-06-23T10:34:42.884Z,4.10
2018-06-23T10:37:12.550Z,3.80
2018-06-23T10:39:41.485Z,4.50
2018-06-23T10:42:49.517Z,4.00
2018-06-23T10:45:18.637Z,4.47
2018-06-23T10:47:48.621Z,3.93
2018-06-23T10:50:17.546Z,4.40
2018-06-23T10:52:46.685Z,3.42
2018-06-23T10:55:18.705Z,3.58
2018-06-23T10:57:47.594Z,4.10
2018-06-23T11:00:16.987Z,3.92
2018-06-23T11:02:45.944Z,3.47
2018-06-23T11:05:15.266Z,3.80
2018-06-23T11:07:44.165Z,3.90
2018-06-23T11:10:13.866Z,3.37
2018-06-23T11:12:42.806Z,3.63
2018-06-23T11:15:11.796Z,4.60
2018-06-23T11:17:40.755Z,3.67
2018-06-23T11:20:09.645Z,4.00
2018-06-23T11:22:38.537Z,4.37
2018-06-23T11:25:07.433Z,4.90
2018-06-23T11:27:36.550Z,3.63
2018-06-23T11:30:07.073Z,4.47
2018-06-23T11:32:36.485Z,4.50
2018-06-23T11:35:05.738Z,3.60
2018-06-23T11:37:38.557Z,3.97
2018-06-23T11:40:10.999Z,3.30
2018-06-23T11:42:39.969Z,3.27
2018-06-23T11:45:08.837Z,3.77
2018-06-23T11:47:38.674Z,3.03
2018-06-23T11:50:07.716Z,3.47
2018-06-23T11:52:43.225Z,3.60
2018-06-23T11:55:20.115Z,3.52
2018-06-23T11:57:56.543Z,3.22
2018-06-23T12:00:32.189Z,4.10
2018-06-23T12:03:01.710Z,3.20
2018-06-23T12:05:37.792Z,3.67
2018-06-23T12:08:10.300Z,3.60
2018-06-23T12:10:41.275Z,3.60
2018-06-23T12:13:21.349Z,3.80
2018-06-23T12:15:54.517Z,3.40
2018-06-23T12:18:29.280Z,2.60
2018-06-23T12:21:02.771Z,3.10
2018-06-23T12:23:39.919Z,3.07
2018-06-23T12:26:17.682Z,3.22
2018-06-23T12:28:56.712Z,3.70
2018-06-23T12:31:35.345Z,4.37
2018-06-23T12:34:10.987Z,3.52
2018-06-23T12:36:39.866Z,3.30
2018-06-23T12:39:14.528Z,4.03
2018-06-23T12:41:47.591Z,4.20
2018-06-23T12:44:16.711Z,3.57
2018-06-23T12:46:45.598Z,3.80
2018-06-23T12:49:14.447Z,3.43
2018-06-23T12:51:43.323Z,3.90
2018-06-23T12:54:12.196Z,3.77
2018-06-23T12:56:41.089Z,3.60
2018-06-23T12:59:10.319Z,3.57
2018-06-23T13:01:39.169Z,4.50
2018-06-23T13:04:08.269Z,4.10
2018-06-23T13:06:37.108Z,5.33
2018-06-23T13:09:08.911Z,4.27
2018-06-23T13:11:37.792Z,3.87
2018-06-23T13:14:06.645Z,3.50
2018-06-23T13:16:38.336Z,3.90
2018-06-23T13:19:13.234Z,3.30
2018-06-23T13:21:44.129Z,3.30
2018-06-23T13:24:13.548Z,3.90
2018-06-23T13:26:43.651Z,4.57
2018-06-23T13:29:12.501Z,4.00
2018-06-23T13:31:41.323Z,4.33
2018-06-23T13:34:10.254Z,4.62
2018-06-23T13:36:39.353Z,3.97
2018-06-23T13:39:09.637Z,4.20
2018-06-23T13:41:38.527Z,4.45
2018-06-23T13:44:07.390Z,3.72
2018-06-23T13:46:36.297Z,4.45
2018-06-23T13:49:05.614Z,4.20
2018-06-23T13:51:34.502Z,6.20
2018-06-23T13:54:03.447Z,4.23
2018-06-23T13:56:32.312Z,4.00
2018-06-23T13:59:01.203Z,3.60
2018-06-23T14:01:30.138Z,3.70
2018-06-23T14:03:58.965Z,4.07
2018-06-23T14:06:28.565Z,4.07
2018-06-23T14:08:57.795Z,4.40
2018-06-23T14:11:26.849Z,3.80
2018-06-23T14:13:55.772Z,5.60
2018-06-23T14:16:25.628Z,4.60
2018-06-23T14:19:03.160Z,4.90
2018-06-23T14:21:32.452Z,5.13
2018-06-23T14:24:01.686Z,4.60
2018-06-23T14:26:31.204Z,3.77
2018-06-23T14:29:00.664Z,4.23
2018-06-23T14:31:29.772Z,4.13
2018-06-23T14:33:59.279Z,3.70
2018-06-23T14:36:28.281Z,4.30
2018-06-23T14:38:57.202Z,4.27
2018-06-23T14:41:26.284Z,4.43
2018-06-23T14:43:55.249Z,4.77
2018-06-23T14:46:24.208Z,3.90
2018-06-23T23:36:17.450Z,6.25
2018-06-23T23:38:46.388Z,6.95
2018-06-23T23:41:39.949Z,5.75
2018-06-23T23:54:12.469Z,7.15
2018-06-23T23:56:41.377Z,7.78
2018-06-23T23:59:10.309Z,6.40
